Time;durP1;ratioP1;P1;durP2;ratioP2;P2;SDS_P1;SDS_P2;PMS_P1;PMS_P2;Temp;Humidity;BMP_temperature;BMP_pressure;BME280_temperature;BME280_humidity;BME280_pressure;Samples;Min_cycle;Max_cycle;Signal;HPM_P1;HPM_P2
2022/04/29 03:59:35;;;;;;;26.47;24.17;;;7.00;99.90;;;;;;6201131;22;20459;-73
2022/04/29 04:02:01;;;;;;;26.80;24.77;;;7.00;99.90;;;;;;6208461;23;20416;-74
2022/04/29 04:04:28;;;;;;;25.10;23.10;;;7.00;99.90;;;;;;6211854;23;20401;-73
2022/04/29 04:07:01;;;;;;;24.50;22.70;;;7.10;99.90;;;;;;6211027;23;20415;-73
2022/04/29 04:09:27;;;;;;;26.10;23.90;;;7.00;99.90;;;;;;6211833;23;20411;-73
2022/04/29 04:11:54;;;;;;;25.60;23.60;;;6.90;99.90;;;;;;6211368;23;20444;-73
2022/04/29 04:14:21;;;;;;;26.47;23.97;;;6.90;99.90;;;;;;6212044;23;20448;-73
2022/04/29 04:16:49;;;;;;;27.17;24.80;;;6.90;99.90;;;;;;6211581;23;20899;-74
2022/04/29 04:19:16;;;;;;;27.00;24.60;;;6.90;99.90;;;;;;6211769;23;20412;-74
2022/04/29 04:21:43;;;;;;;26.40;24.10;;;6.90;99.90;;;;;;6211474;23;20412;-73
2022/04/29 04:24:10;;;;;;;26.17;24.03;;;7.00;99.90;;;;;;6211942;23;20409;-74
2022/04/29 04:26:37;;;;;;;26.97;24.83;;;7.00;99.90;;;;;;6212141;23;20420;-74
2022/04/29 04:29:03;;;;;;;25.63;23.43;;;7.10;99.90;;;;;;6211535;23;20405;-74
2022/04/29 04:31:30;;;;;;;23.70;21.90;;;7.10;99.90;;;;;;6211483;23;20892;-74
2022/04/29 04:33:58;;;;;;;27.50;24.80;;;7.20;99.90;;;;;;6211430;23;20456;-74
2022/04/29 04:36:25;;;;;;;25.13;23.30;;;7.20;99.90;;;;;;6211834;23;20416;-75
2022/04/29 04:38:52;;;;;;;25.60;23.60;;;7.20;99.90;;;;;;6211997;23;20506;-75
2022/04/29 04:41:19;;;;;;;25.83;23.63;;;7.30;99.90;;;;;;6211967;23;20415;-75
2022/04/29 04:43:45;;;;;;;25.60;23.50;;;7.30;99.90;;;;;;6211431;23;21080;-75
2022/04/29 04:46:13;;;;;;;24.00;22.30;;;7.40;99.90;;;;;;6211322;23;20412;-76
2022/04/29 04:48:39;;;;;;;25.80;23.90;;;7.50;99.90;;;;;;6211332;23;20424;-74
2022/04/29 04:51:08;;;;;;;23.23;21.60;;;7.60;99.90;;;;;;6211786;23;20425;-74
2022/04/29 04:53:34;;;;;;;26.47;24.10;;;7.60;99.90;;;;;;6211446;23;20412;-75
2022/04/29 04:56:01;;;;;;;27.63;25.40;;;7.70;99.90;;;;;;6211504;23;20408;-73
2022/04/29 04:58:32;;;;;;;25.77;23.70;;;7.90;99.90;;;;;;6211183;23;20930;-73
2022/04/29 05:00:59;;;;;;;25.03;23.20;;;8.00;99.90;;;;;;6181536;23;20495;-75
2022/04/29 05:03:25;;;;;;;24.93;23.03;;;8.10;99.90;;;;;;6181288;23;20412;-74
2022/04/29 05:05:52;;;;;;;24.60;22.70;;;8.20;99.90;;;;;;6181903;23;20409;-75
2022/04/29 05:08:20;;;;;;;24.90;23.00;;;8.30;99.90;;;;;;6181043;23;20412;-75
2022/04/29 05:10:49;;;;;;;25.50;23.50;;;8.40;99.90;;;;;;6182545;23;20418;-76
2022/04/29 05:13:15;;;;;;;24.63;22.23;;;8.60;99.90;;;;;;6181480;23;20416;-74
2022/04/29 05:15:42;;;;;;;20.87;19.27;;;8.80;99.90;;;;;;6181329;23;20441;-75
2022/04/29 05:18:09;;;;;;;22.47;20.47;;;8.90;99.90;;;;;;6181412;23;20409;-75
2022/04/29 05:20:36;;;;;;;22.10;20.10;;;8.90;99.90;;;;;;6181632;23;20405;-75
2022/04/29 05:23:03;;;;;;;21.00;19.70;;;8.80;99.90;;;;;;6181303;23;20418;-75
2022/04/29 05:25:31;;;;;;;20.47;19.07;;;8.80;99.90;;;;;;6181339;23;20641;-74
2022/04/29 05:27:57;;;;;;;20.47;18.87;;;9.00;99.90;;;;;;6181473;23;20512;-75
2022/04/29 05:30:24;;;;;;;22.00;20.40;;;9.10;99.90;;;;;;6181411;23;20410;-75
2022/04/29 05:32:51;;;;;;;22.57;20.83;;;9.10;99.90;;;;;;6181272;23;20409;-74
2022/04/29 05:35:18;;;;;;;24.43;22.27;;;9.20;99.90;;;;;;6181113;23;20445;-76
2022/04/29 05:37:44;;;;;;;23.20;21.37;;;9.30;99.90;;;;;;6181292;23;20941;-75
2022/04/29 05:42:58;;;;;;;23.30;20.97;;;9.30;99.90;;;;;;6180925;23;20469;-75
2022/04/29 05:45:25;;;;;;;21.70;20.10;;;9.30;99.90;;;;;;6181204;23;20410;-76
2022/04/29 05:47:51;;;;;;;23.53;21.60;;;9.30;99.90;;;;;;6181344;23;20405;-75
2022/04/29 05:50:18;;;;;;;24.23;22.50;;;9.50;99.90;;;;;;6181234;23;20409;-75
2022/04/29 05:52:45;;;;;;;24.13;21.90;;;9.50;99.90;;;;;;6181142;23;20416;-73
2022/04/29 05:55:13;;;;;;;23.63;21.83;;;9.60;99.90;;;;;;6181581;23;20456;-74
2022/04/29 05:57:40;;;;;;;23.13;21.00;;;9.70;99.90;;;;;;6181204;23;20525;-75
2022/04/29 06:00:09;;;;;;;21.87;20.27;;;9.80;99.90;;;;;;6201066;23;20955;-74
2022/04/29 06:02:38;;;;;;;19.80;18.47;;;9.80;99.90;;;;;;6211773;23;20483;-75
2022/04/29 06:05:06;;;;;;;21.13;19.50;;;9.90;99.90;;;;;;6211504;23;20427;-75
2022/04/29 06:07:32;;;;;;;21.30;19.40;;;10.00;99.90;;;;;;6211378;23;20412;-74
2022/04/29 06:09:59;;;;;;;21.30;19.67;;;10.20;99.90;;;;;;6210511;23;20405;-73
2022/04/29 06:12:26;;;;;;;19.63;18.23;;;10.50;99.90;;;;;;6210995;23;20413;-74
2022/04/29 06:14:53;;;;;;;20.13;18.70;;;10.70;99.90;;;;;;6211647;23;20441;-75
2022/04/29 06:17:22;;;;;;;21.00;19.60;;;11.00;99.90;;;;;;6211588;23;20420;-74
2022/04/29 06:19:49;;;;;;;19.73;18.43;;;11.60;99.90;;;;;;6211295;23;20417;-76
2022/04/29 06:22:15;;;;;;;19.47;18.17;;;12.40;99.90;;;;;;6211261;23;20408;-76
2022/04/29 06:24:44;;;;;;;21.90;20.17;;;12.80;99.90;;;;;;6211088;23;20405;-75
2022/04/29 06:27:10;;;;;;;21.50;20.10;;;13.30;99.90;;;;;;6211628;23;20448;-75
2022/04/29 06:29:37;;;;;;;21.40;19.87;;;13.60;99.90;;;;;;6211541;23;20736;-75
2022/04/29 06:32:05;;;;;;;19.13;17.50;;;13.90;99.90;;;;;;6211494;23;20491;-77
2022/04/29 06:34:33;;;;;;;19.90;18.60;;;13.80;99.90;;;;;;6211977;23;20445;-74
2022/04/29 06:37:00;;;;;;;20.47;19.10;;;13.90;99.90;;;;;;6212763;23;20416;-75
2022/04/29 06:39:26;;;;;;;21.30;19.67;;;13.90;99.90;;;;;;6213622;23;20413;-76
2022/04/29 06:41:53;;;;;;;21.03;19.70;;;14.20;99.90;;;;;;6213006;23;20918;-75
2022/04/29 06:44:20;;;;;;;19.77;18.57;;;14.40;99.90;;;;;;6214240;23;20412;-75
2022/04/29 06:46:50;;;;;;;20.83;19.50;;;14.70;99.90;;;;;;6214314;23;20428;-76
2022/04/29 06:49:16;;;;;;;19.37;18.17;;;14.90;98.80;;;;;;6214283;23;20788;-76
2022/04/29 06:51:44;;;;;;;20.33;18.83;;;15.60;97.70;;;;;;6213135;23;20416;-75
2022/04/29 06:54:11;;;;;;;21.87;20.47;;;16.30;96.30;;;;;;6213044;23;20919;-76
2022/04/29 06:56:38;;;;;;;19.90;18.57;;;16.80;94.80;;;;;;6213755;23;20413;-76
2022/04/29 06:59:04;;;;;;;18.27;17.10;;;17.10;93.70;;;;;;6214519;23;20459;-77
2022/04/29 07:01:32;;;;;;;17.80;16.60;;;17.70;92.40;;;;;;6214021;23;20699;-75
2022/04/29 07:03:59;;;;;;;19.53;18.10;;;17.90;91.50;;;;;;6214205;23;20800;-77
2022/04/29 07:06:26;;;;;;;19.33;17.90;;;18.20;91.40;;;;;;6214521;23;20412;-77
2022/04/29 07:08:54;;;;;;;19.33;17.73;;;18.80;90.50;;;;;;6216120;23;20409;-77
2022/04/29 07:11:20;;;;;;;19.10;17.80;;;19.50;86.80;;;;;;6216437;23;20418;-77
2022/04/29 07:13:47;;;;;;;20.30;18.80;;;19.50;84.90;;;;;;6215834;23;20725;-79
2022/04/29 07:16:14;;;;;;;20.20;18.90;;;19.80;85.20;;;;;;6215172;23;20444;-79
2022/04/29 07:18:41;;;;;;;20.97;19.60;;;20.20;83.30;;;;;;6215766;23;20505;-77
2022/04/29 07:21:07;;;;;;;20.10;18.80;;;20.10;81.10;;;;;;6215412;23;20735;-78
2022/04/29 07:23:34;;;;;;;20.00;18.90;;;19.60;83.00;;;;;;6215751;23;20415;-78
2022/04/29 07:26:02;;;;;;;19.17;17.97;;;19.70;83.80;;;;;;6214832;23;20420;-76
2022/04/29 07:28:29;;;;;;;21.40;20.13;;;19.90;83.00;;;;;;6210357;23;20555;-74
2022/04/29 07:30:57;;;;;;;21.13;19.87;;;19.70;83.20;;;;;;6211821;23;20413;-76
2022/04/29 07:33:24;;;;;;;22.43;20.57;;;20.00;81.80;;;;;;6213786;23;20744;-77
2022/04/29 07:44:06;;;;;;;20.70;19.20;;;20.80;77.90;;;;;;6213821;23;20380;-75
2022/04/29 07:46:33;;;;;;;20.63;19.23;;;20.90;77.30;;;;;;6213213;23;20404;-75
2022/04/29 07:49:00;;;;;;;21.37;19.77;;;21.00;78.10;;;;;;6213355;23;20448;-74
2022/04/29 07:51:27;;;;;;;19.57;18.27;;;21.30;76.40;;;;;;6213348;23;20733;-75
2022/04/29 07:53:53;;;;;;;21.30;19.90;;;21.20;74.60;;;;;;6213680;23;20420;-75
2022/04/29 07:56:21;;;;;;;22.37;20.67;;;21.60;74.90;;;;;;6213169;23;20451;-75
2022/04/29 07:58:48;;;;;;;20.70;19.50;;;21.50;73.80;;;;;;6212678;23;20429;-74
2022/04/29 08:01:16;;;;;;;21.33;19.93;;;21.80;73.60;;;;;;6213457;23;20393;-76
2022/04/29 08:03:43;;;;;;;20.50;19.10;;;21.70;73.80;;;;;;6213091;23;20516;-75
2022/04/29 08:06:10;;;;;;;20.73;19.30;;;21.70;75.30;;;;;;6213385;23;20467;-75
2022/04/29 08:08:38;;;;;;;22.50;20.90;;;21.30;74.70;;;;;;6213431;23;20412;-74
2022/04/29 08:11:05;;;;;;;20.93;19.30;;;21.40;75.20;;;;;;6213207;23;20444;-76
2022/04/29 08:13:33;;;;;;;20.73;19.53;;;21.10;74.70;;;;;;6213226;23;20415;-75
2022/04/29 08:16:01;;;;;;;22.07;20.57;;;20.60;76.00;;;;;;6213018;23;21002;-75
2022/04/29 08:18:28;;;;;;;22.13;20.30;;;20.00;76.60;;;;;;6212678;23;20974;-75
2022/04/29 08:20:55;;;;;;;19.70;18.50;;;19.80;79.00;;;;;;6213192;23;20413;-75
2022/04/29 08:23:22;;;;;;;21.40;20.07;;;19.30;80.80;;;;;;6213228;23;20413;-76
2022/04/29 08:25:49;;;;;;;19.83;18.40;;;19.40;81.00;;;;;;6213691;23;20413;-76
2022/04/29 08:28:16;;;;;;;19.13;18.03;;;20.00;79.80;;;;;;6211973;23;20769;-75
2022/04/29 08:30:45;;;;;;;22.00;20.60;;;20.80;76.70;;;;;;6213508;23;20409;-74
2022/04/29 08:33:13;;;;;;;21.90;20.47;;;21.80;73.30;;;;;;6213487;23;20478;-74
2022/04/29 08:35:40;;;;;;;23.03;21.53;;;23.10;69.70;;;;;;6213205;23;20441;-74
2022/04/29 08:38:10;;;;;;;23.80;21.40;;;24.30;66.10;;;;;;6213293;23;20409;-74
2022/04/29 08:40:40;;;;;;;23.87;22.17;;;24.60;65.90;;;;;;6213087;23;20415;-76
2022/04/29 08:43:07;;;;;;;22.50;21.00;;;25.40;62.10;;;;;;6212806;23;20892;-74
2022/04/29 08:45:35;;;;;;;25.40;23.30;;;26.50;59.70;;;;;;6213549;23;20404;-75
2022/04/29 08:48:04;;;;;;;22.83;21.20;;;27.30;56.70;;;;;;6212875;23;20413;-75
2022/04/29 08:50:32;;;;;;;21.47;20.17;;;25.60;57.40;;;;;;6212872;23;20408;-75
2022/04/29 08:52:59;;;;;;;21.00;19.80;;;26.00;58.60;;;;;;6212700;23;20663;-75
2022/04/29 09:01:00;;;;;;;21.07;19.77;;;27.60;55.00;;;;;;6212588;23;20373;-74
2022/04/29 09:03:29;;;;;;;19.93;18.83;;;28.30;51.10;;;;;;6212591;23;20428;-72
2022/04/29 09:05:56;;;;;;;20.17;18.77;;;27.90;50.60;;;;;;6212807;23;20441;-74
2022/04/29 09:08:24;;;;;;;21.10;19.50;;;27.10;51.20;;;;;;6212754;23;20405;-76
2022/04/29 09:10:53;;;;;;;19.10;18.10;;;27.30;51.10;;;;;;6213323;23;20543;-75
2022/04/29 09:13:22;;;;;;;20.40;18.90;;;27.70;50.20;;;;;;6214578;23;20893;-87
2022/04/29 09:15:51;;;;;;;19.80;18.40;;;27.70;50.80;;;;;;6222040;23;20793;-78
2022/04/29 09:18:33;;;;;;;20.70;19.30;;;28.10;48.70;;;;;;6212221;23;20907;-75
2022/04/29 09:21:03;;;;;;;18.33;17.33;;;28.40;47.30;;;;;;6212368;23;20393;-77
2022/04/29 09:23:31;;;;;;;16.50;15.40;;;28.70;48.10;;;;;;6210842;23;20398;-73
2022/04/29 09:26:01;;;;;;;19.70;18.50;;;29.90;44.60;;;;;;6212259;23;20412;-73
2022/04/29 09:28:28;;;;;;;20.05;18.85;;;29.70;44.00;;;;;;6212212;23;20470;-74
2022/04/29 09:30:56;;;;;;;18.30;17.37;;;30.00;42.90;;;;;;6212547;23;20244;-73
2022/04/29 09:33:26;;;;;;;18.83;17.93;;;30.10;43.60;;;;;;6212637;23;20730;-72
2022/04/29 09:35:56;;;;;;;19.23;18.20;;;30.30;42.90;;;;;;6212737;23;20450;-74
2022/04/29 09:41:08;;;;;;;18.20;17.30;;;30.00;42.20;;;;;;6212624;23;20721;-75
2022/04/29 09:43:40;;;;;;;20.20;18.80;;;30.10;41.90;;;;;;6212763;23;20729;-75
2022/04/29 09:46:15;;;;;;;17.90;17.00;;;30.30;41.70;;;;;;6212639;23;20727;-73
2022/04/29 09:48:55;;;;;;;19.57;18.43;;;30.70;39.90;;;;;;6212215;23;20396;-76
2022/04/29 09:51:49;;;;;;;18.87;17.97;;;31.10;39.40;;;;;;6212175;23;20407;-74
2022/04/29 09:54:22;;;;;;;18.90;17.90;;;30.80;38.80;;;;;;6212283;23;20389;-73
2022/04/29 09:57:10;;;;;;;18.27;17.37;;;29.80;38.00;;;;;;6211866;23;20444;-75
2022/04/29 09:59:38;;;;;;;18.27;17.40;;;28.20;39.30;;;;;;6212030;23;20436;-73
2022/04/29 10:02:06;;;;;;;18.03;17.13;;;27.60;41.20;;;;;;6212150;23;20408;-73
2022/04/29 10:04:35;;;;;;;16.67;15.87;;;26.50;42.30;;;;;;6212153;23;20412;-73
2022/04/29 10:07:05;;;;;;;17.97;17.07;;;26.10;41.60;;;;;;6212018;23;20503;-74
2022/04/29 10:09:33;;;;;;;18.07;17.27;;;25.60;42.00;;;;;;6211604;23;20413;-74
2022/04/29 10:12:02;;;;;;;16.87;16.17;;;25.70;43.30;;;;;;6213952;23;20400;-74
2022/04/29 10:14:31;;;;;;;15.57;14.97;;;25.80;43.30;;;;;;6213641;23;20412;-73
2022/04/29 10:22:36;;;;;;;14.70;13.90;;;24.30;42.70;;;;;;6213778;23;20879;-73
2022/04/29 10:25:08;;;;;;;15.70;14.90;;;24.10;40.60;;;;;;6214048;23;20895;-73
2022/04/29 10:27:35;;;;;;;15.63;14.80;;;23.80;41.70;;;;;;6214572;23;20747;-72
2022/04/29 10:30:02;;;;;;;15.53;14.93;;;23.90;40.50;;;;;;6214077;23;20417;-72
2022/04/29 10:32:29;;;;;;;15.87;15.10;;;23.40;41.00;;;;;;6214059;23;20415;-73
2022/04/29 10:34:55;;;;;;;15.87;15.07;;;23.40;42.40;;;;;;6214365;23;20408;-73
2022/04/29 10:37:37;;;;;;;15.50;14.70;;;23.40;42.10;;;;;;6214489;23;20802;-72
2022/04/29 10:40:12;;;;;;;14.87;13.97;;;23.60;42.00;;;;;;6214456;23;20750;-73
2022/04/29 10:43:05;;;;;;;14.83;14.13;;;24.60;41.90;;;;;;6215340;23;20783;-73
2022/04/29 10:45:31;;;;;;;17.13;16.43;;;24.80;40.50;;;;;;6214598;23;20437;-73
2022/04/29 10:47:58;;;;;;;15.40;14.80;;;24.50;42.00;;;;;;6214297;23;20409;-73
2022/04/29 10:50:38;;;;;;;14.87;14.17;;;24.90;40.80;;;;;;6214711;23;20409;-74
2022/04/29 10:53:07;;;;;;;15.07;14.37;;;25.30;41.10;;;;;;6214476;23;20408;-74
2022/04/29 10:55:33;;;;;;;15.60;14.90;;;25.70;40.40;;;;;;6213344;23;20440;-74
2022/04/29 10:58:05;;;;;;;16.33;15.33;;;26.00;40.40;;;;;;6212450;23;20437;-73
2022/04/29 11:00:33;;;;;;;16.17;15.37;;;26.20;40.70;;;;;;6212598;23;20440;-75
2022/04/29 11:03:33;;;;;;;17.60;16.53;;;26.60;38.90;;;;;;6213181;23;20745;-74
2022/04/29 11:06:07;;;;;;;15.87;15.17;;;27.50;37.80;;;;;;6212657;23;20768;-75
2022/04/29 11:08:35;;;;;;;15.70;14.93;;;26.00;38.10;;;;;;6213513;23;20384;-75
2022/04/29 11:11:02;;;;;;;15.30;14.70;;;25.30;39.70;;;;;;6212564;23;20404;-74
2022/04/29 11:13:30;;;;;;;15.70;14.90;;;25.00;41.20;;;;;;6212494;23;20404;-74
2022/04/29 11:16:09;;;;;;;16.67;15.50;;;25.40;40.20;;;;;;6212452;23;20450;-74
2022/04/29 11:18:36;;;;;;;17.10;16.00;;;25.60;40.40;;;;;;6213511;23;20392;-75
2022/04/29 11:24:40;;;;;;;14.63;14.03;;;25.40;39.50;;;;;;6212820;23;20498;-73
2022/04/29 11:26:44;;;;;;;15.07;14.27;;;24.50;39.90;;;;;;6212880;23;20372;-74
2022/04/29 11:29:11;;;;;;;15.73;14.93;;;24.40;40.90;;;;;;6212747;23;20405;-74
2022/04/29 11:31:39;;;;;;;15.23;14.27;;;25.00;40.50;;;;;;6212979;23;20401;-75
2022/04/29 11:34:07;;;;;;;15.10;14.40;;;25.60;40.80;;;;;;6213205;23;20431;-74
2022/04/29 11:36:33;;;;;;;15.23;14.63;;;24.90;39.90;;;;;;6213271;23;20441;-75
2022/04/29 11:39:03;;;;;;;14.80;14.20;;;24.10;40.10;;;;;;6212859;23;20413;-74
2022/04/29 11:41:30;;;;;;;14.20;13.60;;;23.50;39.70;;;;;;6212131;23;20412;-74
2022/04/29 11:43:57;;;;;;;15.20;14.50;;;23.70;40.20;;;;;;6212652;23;20409;-75
2022/04/29 11:46:24;;;;;;;15.10;14.30;;;23.60;39.40;;;;;;6212815;23;20412;-74
2022/04/29 11:48:52;;;;;;;15.97;15.07;;;23.20;39.60;;;;;;6215048;23;20416;-74
2022/04/29 11:51:19;;;;;;;15.33;14.60;;;22.60;40.70;;;;;;6213926;23;20894;-72
2022/04/29 11:53:57;;;;;;;14.77;14.07;;;22.60;41.10;;;;;;6213870;23;20577;-73
2022/04/29 11:56:35;;;;;;;15.23;14.33;;;22.80;41.00;;;;;;6213455;23;20441;-74
2022/04/29 11:59:03;;;;;;;15.30;14.47;;;23.50;41.10;;;;;;6213880;23;20770;-73
2022/04/29 12:01:31;;;;;;;15.00;14.40;;;23.20;39.70;;;;;;6211077;23;20809;-73
2022/04/29 12:03:58;;;;;;;15.33;14.57;;;23.10;40.20;;;;;;6213437;23;20431;-72
2022/04/29 12:06:24;;;;;;;14.90;14.00;;;23.10;39.80;;;;;;6213657;23;20400;-73
2022/04/29 12:08:51;;;;;;;14.27;13.57;;;23.10;39.60;;;;;;6213738;23;20405;-73
2022/04/29 12:11:27;;;;;;;15.60;14.90;;;23.00;40.50;;;;;;6213171;23;20404;-72
2022/04/29 12:13:54;;;;;;;14.20;13.50;;;22.90;40.50;;;;;;6212421;23;20412;-73
2022/04/29 12:16:21;;;;;;;15.93;14.93;;;22.70;41.20;;;;;;6212376;23;20451;-72
2022/04/29 12:18:50;;;;;;;14.20;13.50;;;22.50;40.90;;;;;;6212182;23;20885;-72
2022/04/29 12:21:24;;;;;;;14.70;14.10;;;22.50;42.40;;;;;;6212418;23;20413;-74
2022/04/29 12:23:51;;;;;;;14.70;13.90;;;22.60;42.30;;;;;;6212043;23;20400;-73
2022/04/29 12:26:18;;;;;;;15.03;14.23;;;23.10;41.40;;;;;;6212267;23;20412;-72
2022/04/29 12:28:55;;;;;;;14.90;13.90;;;23.00;41.00;;;;;;6212407;23;20733;-72
2022/04/29 12:36:53;;;;;;;15.53;14.70;;;22.70;41.70;;;;;;6212292;23;20531;-72
2022/04/29 12:39:24;;;;;;;15.40;14.50;;;22.60;41.70;;;;;;6212066;23;20483;-72
2022/04/29 12:42:02;;;;;;;15.40;14.50;;;22.70;41.10;;;;;;6212387;23;20420;-72
2022/04/29 12:47:38;;;;;;;15.13;14.43;;;22.60;41.40;;;;;;6211811;23;20879;-72
2022/04/29 12:50:19;;;;;;;15.50;14.80;;;22.70;42.20;;;;;;6212378;23;20488;-73
2022/04/29 12:53:01;;;;;;;15.13;14.43;;;23.00;41.80;;;;;;6211831;23;20412;-72
2022/04/29 12:55:30;;;;;;;15.50;14.80;;;23.40;41.60;;;;;;6212363;23;20460;-73
2022/04/29 12:58:07;;;;;;;15.60;14.97;;;23.80;41.40;;;;;;6211355;23;20964;-73
2022/04/29 13:00:37;;;;;;;14.97;14.23;;;24.60;40.90;;;;;;6211227;23;20440;-72
2022/04/29 13:03:07;;;;;;;16.40;15.20;;;24.40;39.70;;;;;;6211615;23;20409;-73
2022/04/29 13:05:34;;;;;;;16.33;15.33;;;24.60;39.90;;;;;;6211763;23;20734;-72
2022/04/29 13:08:03;;;;;;;16.20;15.50;;;24.40;40.50;;;;;;6211228;23;20915;-73
2022/04/29 13:10:30;;;;;;;15.30;14.50;;;24.90;40.60;;;;;;6211672;23;20413;-73
2022/04/29 13:12:57;;;;;;;15.80;15.10;;;24.70;40.10;;;;;;6211458;23;20400;-73
2022/04/29 13:15:24;;;;;;;16.17;15.37;;;23.90;40.20;;;;;;6211926;23;20420;-73
2022/04/29 13:17:52;;;;;;;16.07;15.30;;;24.10;40.90;;;;;;6211920;23;20451;-73
2022/04/29 13:20:19;;;;;;;14.50;13.90;;;24.10;40.70;;;;;;6211690;23;20420;-73
2022/04/29 13:22:46;;;;;;;15.10;14.50;;;24.10;41.10;;;;;;6211123;23;21022;-74
2022/04/29 13:25:12;;;;;;;15.30;14.70;;;24.30;41.80;;;;;;6211575;23;20424;-73
2022/04/29 13:27:39;;;;;;;14.43;13.63;;;24.10;41.10;;;;;;6211171;23;20416;-74
2022/04/29 13:30:07;;;;;;;16.07;15.27;;;24.20;42.10;;;;;;6211763;23;20436;-73
2022/04/29 13:32:34;;;;;;;15.60;14.90;;;24.70;40.40;;;;;;6210922;23;20504;-72
2022/04/29 13:35:03;;;;;;;15.67;14.90;;;25.60;40.50;;;;;;6210927;23;20413;-72
2022/04/29 13:37:32;;;;;;;16.10;15.30;;;26.50;39.50;;;;;;6210970;23;20832;-73
2022/04/29 13:39:59;;;;;;;15.73;14.90;;;26.90;39.00;;;;;;6211212;23;20421;-73
2022/04/29 13:42:26;;;;;;;15.27;14.63;;;26.60;38.80;;;;;;6211148;23;20825;-73
2022/04/29 13:44:54;;;;;;;15.77;14.93;;;26.10;39.60;;;;;;6211472;23;20405;-73
2022/04/29 13:47:21;;;;;;;15.50;14.70;;;25.00;39.10;;;;;;6211548;23;20444;-72
2022/04/29 13:49:48;;;;;;;14.70;13.83;;;24.40;39.40;;;;;;6210792;23;20413;-72
2022/04/29 13:55:01;;;;;;;14.20;13.63;;;23.70;41.70;;;;;;6211228;23;20428;-72
2022/04/29 13:57:28;;;;;;;15.33;14.63;;;23.50;40.50;;;;;;6211144;23;20459;-72
2022/04/29 13:59:55;;;;;;;15.37;14.63;;;23.10;41.10;;;;;;6209841;23;20491;-72
2022/04/29 14:02:21;;;;;;;14.40;13.70;;;22.90;41.50;;;;;;6212343;23;20729;-73
2022/04/29 14:04:48;;;;;;;14.60;13.70;;;23.00;42.10;;;;;;6212331;23;20419;-73
2022/04/29 14:07:16;;;;;;;14.97;14.17;;;23.20;42.30;;;;;;6212393;23;20880;-73
2022/04/29 14:09:43;;;;;;;14.43;13.63;;;23.10;42.30;;;;;;6212381;23;20409;-73
2022/04/29 14:12:11;;;;;;;13.77;13.17;;;23.40;43.00;;;;;;6212564;23;20739;-72
2022/04/29 14:14:38;;;;;;;15.03;14.17;;;23.70;42.30;;;;;;6213089;23;20499;-73
2022/04/29 14:17:05;;;;;;;13.87;13.17;;;23.70;43.30;;;;;;6212310;23;20451;-73
2022/04/29 14:19:32;;;;;;;14.00;13.40;;;23.60;43.00;;;;;;6212522;23;20440;-73
2022/04/29 14:21:59;;;;;;;13.17;12.47;;;23.50;42.10;;;;;;6212123;23;20409;-73
2022/04/29 14:24:27;;;;;;;13.90;13.20;;;23.40;42.90;;;;;;6212679;23;20400;-73
2022/04/29 14:26:53;;;;;;;14.20;13.60;;;23.70;42.50;;;;;;6212575;23;20416;-72
2022/04/29 14:29:20;;;;;;;13.93;13.30;;;24.40;42.70;;;;;;6212485;23;20892;-73
2022/04/29 14:31:47;;;;;;;14.37;13.77;;;25.30;41.30;;;;;;6212172;23;20448;-73
2022/04/29 14:34:14;;;;;;;14.07;13.17;;;25.80;40.60;;;;;;6212140;23;20419;-73
2022/04/29 14:36:41;;;;;;;15.30;14.37;;;25.40;40.80;;;;;;6212587;23;20750;-72
2022/04/29 14:39:07;;;;;;;13.90;13.20;;;25.30;40.70;;;;;;6212336;23;20424;-74
2022/04/29 14:41:35;;;;;;;15.53;14.73;;;25.40;41.00;;;;;;6212063;23;20904;-73
2022/04/29 14:44:02;;;;;;;14.03;13.17;;;25.20;40.30;;;;;;6212558;23;20413;-71
2022/04/29 14:46:30;;;;;;;14.07;13.47;;;25.10;41.00;;;;;;6211793;23;20451;-72
2022/04/29 14:48:57;;;;;;;14.57;13.77;;;25.00;41.80;;;;;;6210953;23;20408;-74
2022/04/29 14:51:23;;;;;;;13.67;13.03;;;24.30;42.20;;;;;;6210748;23;20491;-72
2022/04/29 14:53:50;;;;;;;14.37;13.70;;;24.20;42.40;;;;;;6211100;23;20416;-72
2022/04/29 14:56:19;;;;;;;14.60;13.80;;;24.10;42.70;;;;;;6212268;23;20418;-73
2022/04/29 14:58:47;;;;;;;13.37;12.87;;;23.80;43.10;;;;;;6212267;23;21212;-72
2022/04/29 15:01:13;;;;;;;14.23;13.53;;;23.50;44.20;;;;;;6212969;23;20401;-74
2022/04/29 15:03:41;;;;;;;15.23;14.27;;;23.40;44.60;;;;;;6212894;23;20451;-72
2022/04/29 15:06:07;;;;;;;13.93;13.33;;;23.50;44.20;;;;;;6212815;23;20788;-73
2022/04/29 15:08:34;;;;;;;13.93;13.10;;;23.30;44.00;;;;;;6212902;23;20879;-73
2022/04/29 15:16:30;;;;;;;13.67;12.70;;;23.10;44.10;;;;;;6213353;23;20461;-73
2022/04/29 15:18:57;;;;;;;15.73;14.20;;;22.80;44.70;;;;;;6211378;23;20413;-73
2022/04/29 15:21:24;;;;;;;14.53;13.63;;;22.60;45.40;;;;;;6213803;23;20416;-73
2022/04/29 15:23:51;;;;;;;16.03;15.20;;;22.60;46.10;;;;;;6214306;23;20412;-73
2022/04/29 15:26:18;;;;;;;14.77;14.03;;;22.90;45.80;;;;;;6213631;23;20441;-72
2022/04/29 15:28:45;;;;;;;13.73;13.07;;;23.00;45.50;;;;;;6213645;23;20413;-73
2022/04/29 15:31:13;;;;;;;15.33;14.20;;;23.00;45.90;;;;;;6213432;23;20413;-73
2022/04/29 15:33:40;;;;;;;15.80;15.00;;;23.20;45.50;;;;;;6213588;23;20412;-73
2022/04/29 15:36:07;;;;;;;14.17;13.57;;;23.20;45.30;;;;;;6213816;23;20420;-73
2022/04/29 15:38:34;;;;;;;14.40;13.73;;;23.10;45.80;;;;;;6213474;23;20440;-73
2022/04/29 15:41:02;;;;;;;14.87;14.27;;;23.10;46.30;;;;;;6213209;23;20775;-73
2022/04/29 15:43:29;;;;;;;13.23;12.70;;;22.90;45.70;;;;;;6212858;23;20452;-72
2022/04/29 15:45:56;;;;;;;14.50;13.90;;;22.90;46.10;;;;;;6213215;23;20415;-72
2022/04/29 15:48:24;;;;;;;14.53;13.90;;;23.10;45.60;;;;;;6213512;23;20895;-73
2022/04/29 15:50:51;;;;;;;14.47;13.73;;;23.20;45.70;;;;;;6213779;23;20409;-72
2022/04/29 15:53:19;;;;;;;15.03;14.30;;;22.90;45.70;;;;;;6212856;23;20900;-72
2022/04/29 15:55:47;;;;;;;13.60;12.90;;;22.90;46.20;;;;;;6212947;23;20413;-72
2022/04/29 15:58:14;;;;;;;14.93;13.83;;;22.80;45.80;;;;;;6213026;23;20864;-73
2022/04/29 16:00:41;;;;;;;13.30;12.60;;;22.80;46.90;;;;;;6212775;23;20754;-72
2022/04/29 16:03:09;;;;;;;14.30;13.27;;;22.90;46.30;;;;;;6213530;23;20405;-73
2022/04/29 16:05:39;;;;;;;13.43;12.63;;;22.90;46.60;;;;;;6213664;23;20443;-72
2022/04/29 16:08:06;;;;;;;13.50;12.90;;;22.90;47.70;;;;;;6213821;23;20409;-72
2022/04/29 16:10:33;;;;;;;13.93;13.23;;;22.60;47.70;;;;;;6213382;23;20409;-72
2022/04/29 16:12:59;;;;;;;14.20;13.43;;;22.30;48.40;;;;;;6213141;23;20420;-73
2022/04/29 16:15:26;;;;;;;13.50;12.97;;;22.00;47.90;;;;;;6213299;23;20401;-73
2022/04/29 16:20:39;;;;;;;14.47;13.77;;;21.60;48.70;;;;;;6213444;23;20443;-72
2022/04/29 16:25:52;;;;;;;14.30;13.70;;;21.40;48.70;;;;;;6212939;23;20895;-72
2022/04/29 16:28:20;;;;;;;14.70;14.00;;;21.20;49.70;;;;;;6213387;23;20423;-72
2022/04/29 16:30:47;;;;;;;14.10;13.40;;;21.20;50.60;;;;;;6213064;23;20441;-72
2022/04/29 16:33:15;;;;;;;13.87;13.27;;;21.20;49.30;;;;;;6212557;23;20423;-72
2022/04/29 16:35:43;;;;;;;14.13;13.53;;;21.20;50.00;;;;;;6212842;23;20432;-72
2022/04/29 16:38:11;;;;;;;14.70;13.60;;;21.20;48.10;;;;;;6212807;23;20444;-72
2022/04/29 16:40:41;;;;;;;13.27;12.57;;;21.20;48.10;;;;;;6213182;23;20484;-72
2022/04/29 16:43:09;;;;;;;12.80;12.10;;;21.10;48.50;;;;;;6213167;23;20441;-71
2022/04/29 16:45:37;;;;;;;14.70;14.00;;;21.10;48.80;;;;;;6213150;23;20420;-72
2022/04/29 16:48:06;;;;;;;13.53;12.93;;;21.00;48.40;;;;;;6212480;23;20416;-71
2022/04/29 16:50:34;;;;;;;14.00;13.10;;;21.00;48.80;;;;;;6213151;23;20736;-73
2022/04/29 16:53:02;;;;;;;14.13;13.30;;;21.00;50.00;;;;;;6212748;23;20428;-71
2022/04/29 16:55:30;;;;;;;13.90;13.20;;;21.00;50.90;;;;;;6212754;23;20405;-72
2022/04/29 17:00:41;;;;;;;13.07;12.43;;;20.40;51.80;;;;;;6212790;23;20817;-70
2022/04/29 17:03:13;;;;;;;13.53;12.93;;;20.30;52.40;;;;;;6213144;23;20413;-72
2022/04/29 17:05:40;;;;;;;14.50;13.80;;;20.20;52.80;;;;;;6212777;23;20397;-71
2022/04/29 17:08:11;;;;;;;14.47;13.50;;;20.20;52.90;;;;;;6212770;23;20987;-71
2022/04/29 17:10:38;;;;;;;11.77;11.27;;;20.10;52.70;;;;;;6212909;23;20400;-71
2022/04/29 17:13:05;;;;;;;15.87;13.80;;;20.10;53.00;;;;;;6212468;23;20448;-72
2022/04/29 17:15:31;;;;;;;14.10;13.20;;;20.00;53.10;;;;;;6210038;23;20454;-71
2022/04/29 17:17:58;;;;;;;14.03;13.33;;;19.90;54.00;;;;;;6211945;23;20932;-72
2022/04/29 17:20:25;;;;;;;14.73;13.73;;;19.80;54.30;;;;;;6212228;23;20409;-72
2022/04/29 17:22:52;;;;;;;13.90;13.20;;;19.70;55.00;;;;;;6212862;23;20413;-71
2022/04/29 17:25:21;;;;;;;14.20;13.50;;;19.70;54.30;;;;;;6212672;23;20413;-72